sensor_id;sensor_type;location;lat;lon;timestamp;temperature;humidity
39325;DHT22;25037;49.488;9.900;2023-04-01T00:01:04;12.60;64.20
39325;DHT22;25037;49.488;9.900;2023-04-01T00:03:32;12.60;64.10
39325;DHT22;25037;49.488;9.900;2023-04-01T00:06:00;12.60;64.00
39325;DHT22;25037;49.488;9.900;2023-04-01T00:08:28;12.60;63.90
39325;DHT22;25037;49.488;9.900;2023-04-01T00:10:55;12.60;63.90
39325;DHT22;25037;49.488;9.900;2023-04-01T00:13:24;12.60;63.80
39325;DHT22;25037;49.488;9.900;2023-04-01T00:15:52;12.60;63.80
39325;DHT22;25037;49.488;9.900;2023-04-01T00:18:20;12.60;63.70
39325;DHT22;25037;49.488;9.900;2023-04-01T00:20:51;12.60;63.70
39325;DHT22;25037;49.488;9.900;2023-04-01T00:23:18;12.60;63.60
39325;DHT22;25037;49.488;9.900;2023-04-01T00:25:46;12.60;63.60
39325;DHT22;25037;49.488;9.900;2023-04-01T00:28:16;12.60;63.60
39325;DHT22;25037;49.488;9.900;2023-04-01T00:30:43;12.60;63.50
39325;DHT22;25037;49.488;9.900;2023-04-01T00:33:09;12.60;63.50
39325;DHT22;25037;49.488;9.900;2023-04-01T00:35:37;12.60;63.50
39325;DHT22;25037;49.488;9.900;2023-04-01T00:38:04;12.60;63.50
39325;DHT22;25037;49.488;9.900;2023-04-01T00:40:34;12.50;63.40
39325;DHT22;25037;49.488;9.900;2023-04-01T00:43:03;12.60;63.40
39325;DHT22;25037;49.488;9.900;2023-04-01T00:45:34;12.60;63.30
39325;DHT22;25037;49.488;9.900;2023-04-01T00:48:05;12.60;63.20
39325;DHT22;25037;49.488;9.900;2023-04-01T00:50:34;12.50;63.10
39325;DHT22;25037;49.488;9.900;2023-04-01T00:53:02;12.50;63.00
39325;DHT22;25037;49.488;9.900;2023-04-01T00:55:33;12.50;63.00
39325;DHT22;25037;49.488;9.900;2023-04-01T00:58:02;12.50;62.90
39325;DHT22;25037;49.488;9.900;2023-04-01T01:00:30;12.50;62.90
39325;DHT22;25037;49.488;9.900;2023-04-01T01:02:57;12.50;62.90
39325;DHT22;25037;49.488;9.900;2023-04-01T01:05:38;12.50;62.80
39325;DHT22;25037;49.488;9.900;2023-04-01T01:08:22;12.40;62.70
39325;DHT22;25037;49.488;9.900;2023-04-01T01:10:51;12.40;62.70
39325;DHT22;25037;49.488;9.900;2023-04-01T01:13:26;12.50;62.60
39325;DHT22;25037;49.488;9.900;2023-04-01T01:16:06;12.40;62.60
39325;DHT22;25037;49.488;9.900;2023-04-01T01:21:21;12.40;62.40
39325;DHT22;25037;49.488;9.900;2023-04-01T01:24:12;12.50;62.20
39325;DHT22;25037;49.488;9.900;2023-04-01T01:26:58;12.50;62.10
39325;DHT22;25037;49.488;9.900;2023-04-01T01:29:32;12.50;62.10
39325;DHT22;25037;49.488;9.900;2023-04-01T01:32:18;12.40;62.00
39325;DHT22;25037;49.488;9.900;2023-04-01T01:35:14;12.40;61.80
39325;DHT22;25037;49.488;9.900;2023-04-01T01:37:43;12.40;61.80
39325;DHT22;25037;49.488;9.900;2023-04-01T01:40:13;12.40;61.90
39325;DHT22;25037;49.488;9.900;2023-04-01T01:42:44;12.40;61.80
39325;DHT22;25037;49.488;9.900;2023-04-01T01:45:14;12.40;61.90
39325;DHT22;25037;49.488;9.900;2023-04-01T01:47:45;12.40;61.90
39325;DHT22;25037;49.488;9.900;2023-04-01T01:50:14;12.40;62.00
39325;DHT22;25037;49.488;9.900;2023-04-01T01:52:41;12.40;62.00
39325;DHT22;25037;49.488;9.900;2023-04-01T01:55:36;12.40;62.00
39325;DHT22;25037;49.488;9.900;2023-04-01T01:58:13;12.50;62.00
39325;DHT22;25037;49.488;9.900;2023-04-01T02:00:45;12.40;62.10
39325;DHT22;25037;49.488;9.900;2023-04-01T02:03:13;12.40;62.10
39325;DHT22;25037;49.488;9.900;2023-04-01T02:05:41;12.40;62.10
39325;DHT22;25037;49.488;9.900;2023-04-01T02:08:19;12.40;62.10
39325;DHT22;25037;49.488;9.900;2023-04-01T02:10:57;12.40;62.20
39325;DHT22;25037;49.488;9.900;2023-04-01T02:13:31;12.40;62.20
39325;DHT22;25037;49.488;9.900;2023-04-01T02:16:04;12.40;62.20
39325;DHT22;25037;49.488;9.900;2023-04-01T02:18:35;12.40;62.30
39325;DHT22;25037;49.488;9.900;2023-04-01T02:21:05;12.40;62.30
39325;DHT22;25037;49.488;9.900;2023-04-01T02:23:33;12.40;62.30
39325;DHT22;25037;49.488;9.900;2023-04-01T02:26:02;12.40;62.30
39325;DHT22;25037;49.488;9.900;2023-04-01T02:28:31;12.30;62.30
39325;DHT22;25037;49.488;9.900;2023-04-01T02:30:59;12.30;62.40
39325;DHT22;25037;49.488;9.900;2023-04-01T02:33:30;12.40;62.40
39325;DHT22;25037;49.488;9.900;2023-04-01T02:35:58;12.40;62.40
39325;DHT22;25037;49.488;9.900;2023-04-01T02:38:25;12.30;62.30
39325;DHT22;25037;49.488;9.900;2023-04-01T02:40:58;12.30;62.30
39325;DHT22;25037;49.488;9.900;2023-04-01T02:43:24;12.30;62.30
39325;DHT22;25037;49.488;9.900;2023-04-01T02:45:51;12.30;62.30
39325;DHT22;25037;49.488;9.900;2023-04-01T02:48:18;12.20;62.30
39325;DHT22;25037;49.488;9.900;2023-04-01T02:50:45;12.20;62.30
39325;DHT22;25037;49.488;9.900;2023-04-01T02:53:12;12.20;62.30
39325;DHT22;25037;49.488;9.900;2023-04-01T02:55:38;12.20;62.30
39325;DHT22;25037;49.488;9.900;2023-04-01T02:58:05;12.30;62.30
39325;DHT22;25037;49.488;9.900;2023-04-01T03:00:32;12.20;62.30
39325;DHT22;25037;49.488;9.900;2023-04-01T03:02:59;12.20;62.30
39325;DHT22;25037;49.488;9.900;2023-04-01T03:05:26;12.20;62.30
39325;DHT22;25037;49.488;9.900;2023-04-01T03:07:53;12.20;62.20
39325;DHT22;25037;49.488;9.900;2023-04-01T03:10:20;12.20;62.20
39325;DHT22;25037;49.488;9.900;2023-04-01T03:12:46;12.20;62.20
39325;DHT22;25037;49.488;9.900;2023-04-01T03:15:13;12.20;62.10
39325;DHT22;25037;49.488;9.900;2023-04-01T03:17:43;12.20;62.00
39325;DHT22;25037;49.488;9.900;2023-04-01T03:20:11;12.30;62.00
39325;DHT22;25037;49.488;9.900;2023-04-01T03:22:38;12.20;61.90
39325;DHT22;25037;49.488;9.900;2023-04-01T03:25:09;12.20;61.80
39325;DHT22;25037;49.488;9.900;2023-04-01T03:27:36;12.30;61.80
39325;DHT22;25037;49.488;9.900;2023-04-01T03:30:04;12.30;61.90
39325;DHT22;25037;49.488;9.900;2023-04-01T03:32:31;12.30;61.90
39325;DHT22;25037;49.488;9.900;2023-04-01T03:34:58;12.30;61.80
39325;DHT22;25037;49.488;9.900;2023-04-01T03:37:25;12.30;61.70
39325;DHT22;25037;49.488;9.900;2023-04-01T03:39:52;12.30;61.70
39325;DHT22;25037;49.488;9.900;2023-04-01T03:42:19;12.30;61.60
39325;DHT22;25037;49.488;9.900;2023-04-01T03:44:46;12.30;61.70
39325;DHT22;25037;49.488;9.900;2023-04-01T03:47:12;12.30;61.60
39325;DHT22;25037;49.488;9.900;2023-04-01T03:49:39;12.30;61.60
39325;DHT22;25037;49.488;9.900;2023-04-01T03:52:09;12.20;61.60
39325;DHT22;25037;49.488;9.900;2023-04-01T03:54:37;12.30;61.60
39325;DHT22;25037;49.488;9.900;2023-04-01T03:57:03;12.30;61.60
39325;DHT22;25037;49.488;9.900;2023-04-01T03:59:30;12.30;61.60
39325;DHT22;25037;49.488;9.900;2023-04-01T04:01:57;12.30;61.50
39325;DHT22;25037;49.488;9.900;2023-04-01T04:04:23;12.30;61.40
39325;DHT22;25037;49.488;9.900;2023-04-01T04:06:50;12.30;61.40
39325;DHT22;25037;49.488;9.900;2023-04-01T04:09:17;12.30;61.40
39325;DHT22;25037;49.488;9.900;2023-04-01T04:11:44;12.30;61.60
39325;DHT22;25037;49.488;9.900;2023-04-01T04:14:10;12.30;61.70
39325;DHT22;25037;49.488;9.900;2023-04-01T04:16:37;12.30;61.70
39325;DHT22;25037;49.488;9.900;2023-04-01T04:19:04;12.30;61.70
39325;DHT22;25037;49.488;9.900;2023-04-01T04:21:40;12.20;61.70
39325;DHT22;25037;49.488;9.900;2023-04-01T04:24:07;12.20;61.70
39325;DHT22;25037;49.488;9.900;2023-04-01T04:26:34;12.20;61.80
39325;DHT22;25037;49.488;9.900;2023-04-01T04:29:01;12.20;61.80
39325;DHT22;25037;49.488;9.900;2023-04-01T04:31:28;12.20;61.80
39325;DHT22;25037;49.488;9.900;2023-04-01T04:33:55;12.20;61.70
39325;DHT22;25037;49.488;9.900;2023-04-01T04:36:22;12.20;61.60
39325;DHT22;25037;49.488;9.900;2023-04-01T04:38:49;12.20;61.50
39325;DHT22;25037;49.488;9.900;2023-04-01T04:41:17;12.20;61.40
39325;DHT22;25037;49.488;9.900;2023-04-01T04:43:50;12.20;61.40
39325;DHT22;25037;49.488;9.900;2023-04-01T04:46:18;12.20;61.20
39325;DHT22;25037;49.488;9.900;2023-04-01T04:48:44;12.20;61.20
39325;DHT22;25037;49.488;9.900;2023-04-01T04:51:16;12.20;61.10
39325;DHT22;25037;49.488;9.900;2023-04-01T04:53:43;12.20;61.00
39325;DHT22;25037;49.488;9.900;2023-04-01T04:56:11;12.20;61.10
39325;DHT22;25037;49.488;9.900;2023-04-01T04:58:38;12.20;61.00
39325;DHT22;25037;49.488;9.900;2023-04-01T05:01:10;12.30;61.00
39325;DHT22;25037;49.488;9.900;2023-04-01T05:03:37;12.30;60.90
39325;DHT22;25037;49.488;9.900;2023-04-01T05:06:05;12.20;61.00
39325;DHT22;25037;49.488;9.900;2023-04-01T05:08:32;12.30;61.00
39325;DHT22;25037;49.488;9.900;2023-04-01T05:10:59;12.30;61.00
39325;DHT22;25037;49.488;9.900;2023-04-01T05:13:27;12.30;61.00
39325;DHT22;25037;49.488;9.900;2023-04-01T05:15:54;12.30;61.10
39325;DHT22;25037;49.488;9.900;2023-04-01T05:18:21;12.20;61.10
39325;DHT22;25037;49.488;9.900;2023-04-01T05:20:53;12.20;61.10
39325;DHT22;25037;49.488;9.900;2023-04-01T05:23:20;12.30;61.20
39325;DHT22;25037;49.488;9.900;2023-04-01T05:25:49;12.30;61.20
39325;DHT22;25037;49.488;9.900;2023-04-01T05:28:16;12.30;61.40
39325;DHT22;25037;49.488;9.900;2023-04-01T05:30:43;12.30;61.50
39325;DHT22;25037;49.488;9.900;2023-04-01T05:33:11;12.30;61.70
39325;DHT22;25037;49.488;9.900;2023-04-01T05:35:40;12.40;61.70
39325;DHT22;25037;49.488;9.900;2023-04-01T05:38:07;12.40;61.80
39325;DHT22;25037;49.488;9.900;2023-04-01T05:40:33;12.40;61.80
39325;DHT22;25037;49.488;9.900;2023-04-01T05:43:00;12.40;61.80
39325;DHT22;25037;49.488;9.900;2023-04-01T05:45:27;12.50;62.00
39325;DHT22;25037;49.488;9.900;2023-04-01T05:47:54;12.40;62.00
39325;DHT22;25037;49.488;9.900;2023-04-01T05:50:21;12.40;62.20
39325;DHT22;25037;49.488;9.900;2023-04-01T05:52:48;12.40;62.30
39325;DHT22;25037;49.488;9.900;2023-04-01T05:55:14;12.40;62.50
39325;DHT22;25037;49.488;9.900;2023-04-01T05:57:41;12.40;62.60
39325;DHT22;25037;49.488;9.900;2023-04-01T06:00:08;12.40;62.70
39325;DHT22;25037;49.488;9.900;2023-04-01T06:02:35;12.40;62.70
39325;DHT22;25037;49.488;9.900;2023-04-01T06:05:14;12.40;62.80
39325;DHT22;25037;49.488;9.900;2023-04-01T06:07:42;12.40;63.00
39325;DHT22;25037;49.488;9.900;2023-04-01T06:10:13;12.40;63.00
39325;DHT22;25037;49.488;9.900;2023-04-01T06:12:48;12.40;63.00
39325;DHT22;25037;49.488;9.900;2023-04-01T06:15:30;12.40;63.10
39325;DHT22;25037;49.488;9.900;2023-04-01T06:20:57;12.40;62.90
39325;DHT22;25037;49.488;9.900;2023-04-01T06:23:50;12.40;62.60
39325;DHT22;25037;49.488;9.900;2023-04-01T06:26:21;12.50;62.40
39325;DHT22;25037;49.488;9.900;2023-04-01T06:37:24;12.60;62.30
39325;DHT22;25037;49.488;9.900;2023-04-01T06:48:38;12.60;62.80
39325;DHT22;25037;49.488;9.900;2023-04-01T06:56:26;12.60;63.30
39325;DHT22;25037;49.488;9.900;2023-04-01T06:59:03;12.50;63.60
39325;DHT22;25037;49.488;9.900;2023-04-01T07:01:38;12.40;63.70
39325;DHT22;25037;49.488;9.900;2023-04-01T07:04:11;12.40;63.90
39325;DHT22;25037;49.488;9.900;2023-04-01T07:06:53;12.40;64.00
39325;DHT22;25037;49.488;9.900;2023-04-01T07:09:26;12.40;64.10
39325;DHT22;25037;49.488;9.900;2023-04-01T07:11:59;12.40;64.20
39325;DHT22;25037;49.488;9.900;2023-04-01T07:14:35;12.50;64.20
39325;DHT22;25037;49.488;9.900;2023-04-01T07:17:23;12.50;64.30
39325;DHT22;25037;49.488;9.900;2023-04-01T07:20:27;12.60;64.10
39325;DHT22;25037;49.488;9.900;2023-04-01T07:22:49;12.50;64.20
39325;DHT22;25037;49.488;9.900;2023-04-01T07:25:26;12.60;64.40
39325;DHT22;25037;49.488;9.900;2023-04-01T07:28:03;12.60;64.70
39325;DHT22;25037;49.488;9.900;2023-04-01T07:31:05;12.60;65.00
39325;DHT22;25037;49.488;9.900;2023-04-01T07:36:13;12.60;65.20
39325;DHT22;25037;49.488;9.900;2023-04-01T07:38:57;12.70;65.20
39325;DHT22;25037;49.488;9.900;2023-04-01T07:49:30;12.90;65.80
39325;DHT22;25037;49.488;9.900;2023-04-01T07:52:24;13.00;65.70
39325;DHT22;25037;49.488;9.900;2023-04-01T08:00:07;13.40;65.70
39325;DHT22;25037;49.488;9.900;2023-04-01T08:05:45;13.50;65.70
39325;DHT22;25037;49.488;9.900;2023-04-01T08:08:26;13.50;65.70
39325;DHT22;25037;49.488;9.900;2023-04-01T08:14:01;13.30;66.10
39325;DHT22;25037;49.488;9.900;2023-04-01T08:16:38;13.30;66.00
39325;DHT22;25037;49.488;9.900;2023-04-01T08:19:26;13.20;66.30
39325;DHT22;25037;49.488;9.900;2023-04-01T08:22:06;13.20;66.40
39325;DHT22;25037;49.488;9.900;2023-04-01T08:24:42;13.10;66.60
39325;DHT22;25037;49.488;9.900;2023-04-01T08:27:35;13.10;66.60
39325;DHT22;25037;49.488;9.900;2023-04-01T08:32:38;13.00;66.90
39325;DHT22;25037;49.488;9.900;2023-04-01T08:35:26;13.00;66.90
39325;DHT22;25037;49.488;9.900;2023-04-01T08:37:57;13.10;66.90
39325;DHT22;25037;49.488;9.900;2023-04-01T08:49:13;12.80;67.30
39325;DHT22;25037;49.488;9.900;2023-04-01T08:54:30;12.70;67.60
39325;DHT22;25037;49.488;9.900;2023-04-01T08:57:12;12.70;67.60
39325;DHT22;25037;49.488;9.900;2023-04-01T09:00:11;12.70;67.80
39325;DHT22;25037;49.488;9.900;2023-04-01T09:03:58;12.70;67.60
39325;DHT22;25037;49.488;9.900;2023-04-01T09:06:20;12.70;68.00
39325;DHT22;25037;49.488;9.900;2023-04-01T09:09:02;12.70;67.80
39325;DHT22;25037;49.488;9.900;2023-04-01T09:23:17;13.10;67.40
39325;DHT22;25037;49.488;9.900;2023-04-01T09:29:10;13.10;67.10
39325;DHT22;25037;49.488;9.900;2023-04-01T09:34:30;13.20;66.90
39325;DHT22;25037;49.488;9.900;2023-04-01T09:37:18;13.30;67.00
39325;DHT22;25037;49.488;9.900;2023-04-01T09:40:15;13.30;67.00
39325;DHT22;25037;49.488;9.900;2023-04-01T09:42:45;13.30;66.90
39325;DHT22;25037;49.488;9.900;2023-04-01T09:45:40;13.30;67.00
39325;DHT22;25037;49.488;9.900;2023-04-01T09:48:19;13.30;66.90
39325;DHT22;25037;49.488;9.900;2023-04-01T09:51:23;13.30;66.90
39325;DHT22;25037;49.488;9.900;2023-04-01T10:03:01;13.50;67.00
39325;DHT22;25037;49.488;9.900;2023-04-01T10:05:57;13.50;67.00
39325;DHT22;25037;49.488;9.900;2023-04-01T10:20:17;13.30;67.40
39325;DHT22;25037;49.488;9.900;2023-04-01T10:22:54;13.30;67.40
39325;DHT22;25037;49.488;9.900;2023-04-01T10:25:34;13.30;67.70
39325;DHT22;25037;49.488;9.900;2023-04-01T10:31:12;13.30;67.90
39325;DHT22;25037;49.488;9.900;2023-04-01T10:36:56;13.30;67.80
39325;DHT22;25037;49.488;9.900;2023-04-01T10:39:34;13.30;67.90
39325;DHT22;25037;49.488;9.900;2023-04-01T10:42:11;13.30;68.00
39325;DHT22;25037;49.488;9.900;2023-04-01T10:56:11;13.30;68.10
39325;DHT22;25037;49.488;9.900;2023-04-01T10:58:55;13.30;68.10
39325;DHT22;25037;49.488;9.900;2023-04-01T11:01:55;13.30;68.30
39325;DHT22;25037;49.488;9.900;2023-04-01T11:19:48;13.40;68.20
39325;DHT22;25037;49.488;9.900;2023-04-01T11:22:36;13.50;68.00
39325;DHT22;25037;49.488;9.900;2023-04-01T11:31:35;13.60;68.20
39325;DHT22;25037;49.488;9.900;2023-04-01T11:37:27;13.60;68.00
39325;DHT22;25037;49.488;9.900;2023-04-01T11:43:18;13.70;67.90
39325;DHT22;25037;49.488;9.900;2023-04-01T11:48:54;13.70;67.90
39325;DHT22;25037;49.488;9.900;2023-04-01T11:54:41;13.80;67.70
39325;DHT22;25037;49.488;9.900;2023-04-01T11:57:43;13.80;67.60
39325;DHT22;25037;49.488;9.900;2023-04-01T12:05:43;13.80;67.60
39325;DHT22;25037;49.488;9.900;2023-04-01T12:11:17;13.90;67.20
39325;DHT22;25037;49.488;9.900;2023-04-01T12:14:01;13.80;67.40
39325;DHT22;25037;49.488;9.900;2023-04-01T12:30:30;13.80;67.20
39325;DHT22;25037;49.488;9.900;2023-04-01T12:38:31;13.80;67.30
39325;DHT22;25037;49.488;9.900;2023-04-01T12:44:37;13.80;67.40
39325;DHT22;25037;49.488;9.900;2023-04-01T12:47:30;13.70;67.30
39325;DHT22;25037;49.488;9.900;2023-04-01T12:55:45;13.60;67.80
39325;DHT22;25037;49.488;9.900;2023-04-01T12:58:27;13.70;67.80
39325;DHT22;25037;49.488;9.900;2023-04-01T13:01:23;13.60;67.90
39325;DHT22;25037;49.488;9.900;2023-04-01T13:04:03;13.60;67.90
39325;DHT22;25037;49.488;9.900;2023-04-01T13:09:31;13.70;67.60
39325;DHT22;25037;49.488;9.900;2023-04-01T13:15:26;13.70;67.60
39325;DHT22;25037;49.488;9.900;2023-04-01T13:18:16;13.70;67.40
39325;DHT22;25037;49.488;9.900;2023-04-01T13:20:53;13.70;67.30
39325;DHT22;25037;49.488;9.900;2023-04-01T13:29:06;13.70;67.30
39325;DHT22;25037;49.488;9.900;2023-04-01T13:32:00;13.70;67.10
39325;DHT22;25037;49.488;9.900;2023-04-01T13:34:39;13.70;67.10
39325;DHT22;25037;49.488;9.900;2023-04-01T13:37:24;13.70;66.90
39325;DHT22;25037;49.488;9.900;2023-04-01T13:42:51;13.80;66.90
39325;DHT22;25037;49.488;9.900;2023-04-01T13:45:24;13.70;66.80
39325;DHT22;25037;49.488;9.900;2023-04-01T13:51:06;13.80;66.30
39325;DHT22;25037;49.488;9.900;2023-04-01T13:56:50;13.70;66.40
39325;DHT22;25037;49.488;9.900;2023-04-01T13:59:40;13.70;66.30
39325;DHT22;25037;49.488;9.900;2023-04-01T14:02:24;13.70;66.10
39325;DHT22;25037;49.488;9.900;2023-04-01T14:10:42;13.80;66.20
39325;DHT22;25037;49.488;9.900;2023-04-01T14:17:03;13.90;65.60
39325;DHT22;25037;49.488;9.900;2023-04-01T14:22:25;13.80;65.70
39325;DHT22;25037;49.488;9.900;2023-04-01T14:30:57;13.80;65.70
39325;DHT22;25037;49.488;9.900;2023-04-01T14:47:59;13.50;66.00
39325;DHT22;25037;49.488;9.900;2023-04-01T14:50:29;13.50;66.10
39325;DHT22;25037;49.488;9.900;2023-04-01T14:58:18;13.40;66.40
39325;DHT22;25037;49.488;9.900;2023-04-01T15:01:10;13.30;66.40
39325;DHT22;25037;49.488;9.900;2023-04-01T15:14:37;13.20;66.40
39325;DHT22;25037;49.488;9.900;2023-04-01T15:17:48;13.10;66.40
39325;DHT22;25037;49.488;9.900;2023-04-01T15:31:34;13.00;66.30
39325;DHT22;25037;49.488;9.900;2023-04-01T15:34:35;13.00;66.40
39325;DHT22;25037;49.488;9.900;2023-04-01T15:37:51;13.10;66.50
39325;DHT22;25037;49.488;9.900;2023-04-01T15:40:43;13.00;66.40
39325;DHT22;25037;49.488;9.900;2023-04-01T15:43:33;13.00;66.50
39325;DHT22;25037;49.488;9.900;2023-04-01T15:54:51;13.00;66.40
39325;DHT22;25037;49.488;9.900;2023-04-01T16:03:26;13.00;66.30
39325;DHT22;25037;49.488;9.900;2023-04-01T16:06:31;13.00;66.30
39325;DHT22;25037;49.488;9.900;2023-04-01T16:12:07;13.00;66.30
39325;DHT22;25037;49.488;9.900;2023-04-01T16:15:03;13.00;66.30
39325;DHT22;25037;49.488;9.900;2023-04-01T16:20:24;13.10;66.20
39325;DHT22;25037;49.488;9.900;2023-04-01T16:25:36;13.10;66.30
39325;DHT22;25037;49.488;9.900;2023-04-01T16:28:25;13.10;66.40
39325;DHT22;25037;49.488;9.900;2023-04-01T16:31:43;13.00;66.40
39325;DHT22;25037;49.488;9.900;2023-04-01T16:37:15;13.00;66.60
39325;DHT22;25037;49.488;9.900;2023-04-01T16:40:13;12.90;66.70
39325;DHT22;25037;49.488;9.900;2023-04-01T16:42:52;12.90;66.70
39325;DHT22;25037;49.488;9.900;2023-04-01T16:45:30;12.90;66.90
39325;DHT22;25037;49.488;9.900;2023-04-01T16:48:24;12.80;67.00
39325;DHT22;25037;49.488;9.900;2023-04-01T16:53:41;12.80;67.00
39325;DHT22;25037;49.488;9.900;2023-04-01T16:56:23;12.80;67.00
39325;DHT22;25037;49.488;9.900;2023-04-01T17:01:54;12.80;67.10
39325;DHT22;25037;49.488;9.900;2023-04-01T17:04:48;12.80;67.10
39325;DHT22;25037;49.488;9.900;2023-04-01T17:13:27;12.80;66.90
39325;DHT22;25037;49.488;9.900;2023-04-01T17:16:19;12.80;66.90
39325;DHT22;25037;49.488;9.900;2023-04-01T17:19:13;12.80;67.00
39325;DHT22;25037;49.488;9.900;2023-04-01T17:25:09;12.80;67.10
39325;DHT22;25037;49.488;9.900;2023-04-01T17:39:26;12.70;67.40
39325;DHT22;25037;49.488;9.900;2023-04-01T17:47:21;12.60;67.60
39325;DHT22;25037;49.488;9.900;2023-04-01T17:49:58;12.60;67.60
39325;DHT22;25037;49.488;9.900;2023-04-01T17:52:37;12.60;67.70
39325;DHT22;25037;49.488;9.900;2023-04-01T17:58:32;12.60;67.70
39325;DHT22;25037;49.488;9.900;2023-04-01T18:04:11;12.50;67.80
39325;DHT22;25037;49.488;9.900;2023-04-01T18:06:59;12.50;67.70
39325;DHT22;25037;49.488;9.900;2023-04-01T18:15:10;12.50;67.80
39325;DHT22;25037;49.488;9.900;2023-04-01T18:17:52;12.50;67.80
39325;DHT22;25037;49.488;9.900;2023-04-01T18:25:46;12.50;67.90
39325;DHT22;25037;49.488;9.900;2023-04-01T18:28:26;12.50;67.90
39325;DHT22;25037;49.488;9.900;2023-04-01T18:36:24;12.50;67.90
39325;DHT22;25037;49.488;9.900;2023-04-01T18:38:57;12.40;67.90
39325;DHT22;25037;49.488;9.900;2023-04-01T18:41:30;12.40;68.00
39325;DHT22;25037;49.488;9.900;2023-04-01T18:44:15;12.40;67.90
39325;DHT22;25037;49.488;9.900;2023-04-01T18:47:03;12.40;68.00
39325;DHT22;25037;49.488;9.900;2023-04-01T18:49:58;12.50;68.00
39325;DHT22;25037;49.488;9.900;2023-04-01T18:52:43;12.40;67.90
39325;DHT22;25037;49.488;9.900;2023-04-01T18:57:55;12.50;68.00
39325;DHT22;25037;49.488;9.900;2023-04-01T19:00:32;12.50;68.00
39325;DHT22;25037;49.488;9.900;2023-04-01T19:03:10;12.40;67.90
39325;DHT22;25037;49.488;9.900;2023-04-01T19:05:40;12.50;67.90
39325;DHT22;25037;49.488;9.900;2023-04-01T19:11:10;12.50;67.80
39325;DHT22;25037;49.488;9.900;2023-04-01T19:14:06;12.50;67.70
39325;DHT22;25037;49.488;9.900;2023-04-01T19:16:55;12.50;67.70
39325;DHT22;25037;49.488;9.900;2023-04-01T19:25:26;12.50;67.70
39325;DHT22;25037;49.488;9.900;2023-04-01T19:28:24;12.50;67.80
39325;DHT22;25037;49.488;9.900;2023-04-01T19:31:08;12.50;67.90
39325;DHT22;25037;49.488;9.900;2023-04-01T19:51:33;12.30;68.00
39325;DHT22;25037;49.488;9.900;2023-04-01T19:54:19;12.20;68.10
39325;DHT22;25037;49.488;9.900;2023-04-01T19:57:04;12.20;68.20
39325;DHT22;25037;49.488;9.900;2023-04-01T19:59:39;12.20;68.20
39325;DHT22;25037;49.488;9.900;2023-04-01T20:04:49;12.20;68.20
39325;DHT22;25037;49.488;9.900;2023-04-01T20:07:22;12.10;68.20
39325;DHT22;25037;49.488;9.900;2023-04-01T20:10:03;12.10;68.20
39325;DHT22;25037;49.488;9.900;2023-04-01T20:12:46;12.10;68.30
39325;DHT22;25037;49.488;9.900;2023-04-01T20:17:52;12.10;68.40
39325;DHT22;25037;49.488;9.900;2023-04-01T20:20:25;12.10;68.40
39325;DHT22;25037;49.488;9.900;2023-04-01T20:24:05;12.10;68.50
39325;DHT22;25037;49.488;9.900;2023-04-01T20:26:12;12.00;68.40
39325;DHT22;25037;49.488;9.900;2023-04-01T20:31:33;12.00;68.50
39325;DHT22;25037;49.488;9.900;2023-04-01T20:36:54;12.00;68.50
39325;DHT22;25037;49.488;9.900;2023-04-01T20:39:58;12.00;68.60
39325;DHT22;25037;49.488;9.900;2023-04-01T20:50:34;12.00;68.70
39325;DHT22;25037;49.488;9.900;2023-04-01T20:53:12;12.00;68.70
39325;DHT22;25037;49.488;9.900;2023-04-01T21:03:29;11.90;68.90
39325;DHT22;25037;49.488;9.900;2023-04-01T21:11:55;11.80;68.90
39325;DHT22;25037;49.488;9.900;2023-04-01T21:14:47;11.80;69.00
39325;DHT22;25037;49.488;9.900;2023-04-01T21:20:03;11.80;69.00
39325;DHT22;25037;49.488;9.900;2023-04-01T21:25:39;11.80;69.10
39325;DHT22;25037;49.488;9.900;2023-04-01T21:31:11;11.80;69.10
39325;DHT22;25037;49.488;9.900;2023-04-01T21:39:54;11.80;69.20
39325;DHT22;25037;49.488;9.900;2023-04-01T21:48:19;11.80;69.20
39325;DHT22;25037;49.488;9.900;2023-04-01T21:57:07;11.80;69.30
39325;DHT22;25037;49.488;9.900;2023-04-01T22:05:25;11.80;69.30
39325;DHT22;25037;49.488;9.900;2023-04-01T22:08:24;11.80;69.40
39325;DHT22;25037;49.488;9.900;2023-04-01T22:17:08;11.80;69.30
39325;DHT22;25037;49.488;9.900;2023-04-01T22:19:41;11.80;69.40
39325;DHT22;25037;49.488;9.900;2023-04-01T22:22:25;11.80;69.30
39325;DHT22;25037;49.488;9.900;2023-04-01T22:37:42;11.80;69.40
39325;DHT22;25037;49.488;9.900;2023-04-01T22:40:22;11.80;69.30
39325;DHT22;25037;49.488;9.900;2023-04-01T22:43:01;11.80;69.40
39325;DHT22;25037;49.488;9.900;2023-04-01T22:50:50;11.80;69.40
39325;DHT22;25037;49.488;9.900;2023-04-01T22:56:37;11.80;69.40
39325;DHT22;25037;49.488;9.900;2023-04-01T22:59:21;11.80;69.40
39325;DHT22;25037;49.488;9.900;2023-04-01T23:01:57;11.80;69.40
39325;DHT22;25037;49.488;9.900;2023-04-01T23:04:32;11.80;69.40
39325;DHT22;25037;49.488;9.900;2023-04-01T23:07:04;11.80;69.40
39325;DHT22;25037;49.488;9.900;2023-04-01T23:09:33;11.80;69.40
39325;DHT22;25037;49.488;9.900;2023-04-01T23:25:49;11.80;69.40
39325;DHT22;25037;49.488;9.900;2023-04-01T23:28:38;11.80;69.40
39325;DHT22;25037;49.488;9.900;2023-04-01T23:34:14;11.80;69.50
39325;DHT22;25037;49.488;9.900;2023-04-01T23:36:53;11.80;69.50
39325;DHT22;25037;49.488;9.900;2023-04-01T23:39:33;11.80;69.60
39325;DHT22;25037;49.488;9.900;2023-04-01T23:42:26;11.80;69.50
39325;DHT22;25037;49.488;9.900;2023-04-01T23:44:53;11.80;69.50
39325;DHT22;25037;49.488;9.900;2023-04-01T23:47:24;11.80;69.50
39325;DHT22;25037;49.488;9.900;2023-04-01T23:50:10;11.80;69.40
39325;DHT22;25037;49.488;9.900;2023-04-01T23:52:44;11.80;69.40
39325;DHT22;25037;49.488;9.900;2023-04-01T23:55:31;11.80;69.40
39325;DHT22;25037;49.488;9.900;2023-04-01T23:58:22;11.80;69.40
